Flight Track Log - Related Links

Times and Time Zones

All times are in EDT time to prevent confusion due to time zone crossing. See the RPA3314 flight status page for this flight to view local times or setup timezone preferences in your user account.

Time Position Orientation Groundspeed Altitude Reporting Facility
EDT Latitude Longitude Course Direction KTS MPH feet Rate Location/Type
Tue 09:34:04 PM 39.8667 -75.2667 218° Southwest 154 177 800  Level Philadelphia TRACON
Tue 09:35:16 PM 39.8167 -75.3167 218° Southwest 203 234 3,400 2,273 Climbing Philadelphia TRACON
Tue 09:36:16 PM 39.7667 -75.3333 194° South 266 306 5,800 2,750 Climbing Philadelphia TRACON
Tue 09:37:16 PM 39.7500 -75.2333 102° East 283 326 8,900 2,500 Climbing Philadelphia TRACON
Tue 09:38:16 PM 39.7667 -75.1167 79° East 323 372 10,800 1,333 Climbing Philadelphia TRACON
Tue 09:40:43 PM 39.7883 -74.7989 85° East 375 432 13,500 1,413 Climbing New York Center
Tue 09:41:44 PM 39.8300 -74.6769 66° East 375 432 15,700 2,132 Climbing New York Center
Tue 09:42:44 PM 39.9183 -74.5925 36° Northeast 361 415 17,800 1,934 Climbing New York Center
Tue 09:43:45 PM 39.9978 -74.5183 36° Northeast 370 426 19,600 2,085 Climbing New York Center
Tue 09:44:42 PM 40.0989 -74.4153 38° Northeast 387 445 21,900 2,154 Climbing New York Center
Tue 09:45:42 PM 40.1892 -74.3250 37° Northeast 402 463 23,800 2,115 Climbing New York Center
Tue 09:46:44 PM 40.2853 -74.2483 31° Northeast 402 463 26,200 2,150 Climbing New York Center
Tue 09:47:42 PM 40.3944 -74.2211 11° North 388 447 28,100 1,424 Climbing New York Center
Tue 09:48:42 PM 40.5036 -74.1964 10° North 383 441 29,000 450 Climbing New York Center
Tue 09:49:42 PM 40.6169 -74.1694 10° North 399 459 29,000  Level New York Center
Tue 09:51:24 PM 40.8186 -74.1239 10° North 451 519 29,000  Level Boston Center
Tue 09:52:24 PM 40.9358 -74.0914 12° North 446 513 29,000  Level Boston Center
Tue 09:53:24 PM 41.0569 -74.0614 11° North 441 507 29,000  Level Boston Center
Tue 09:54:22 PM 41.1783 -74.0314 11° North 436 502 29,000  Level Boston Center
Tue 09:55:23 PM 41.2975 -74.0011 11° North 436 502 29,000  Level Boston Center
Tue 09:56:25 PM 41.4147 -73.9708 11° North 431 496 29,000  Level Boston Center
Tue 09:57:22 PM 41.5339 -73.9403 11° North 431 496 29,000  Level Boston Center
Tue 09:58:23 PM 41.6300 -73.9150 11° North 431 496 29,000  Level Boston Center
Tue 09:59:23 PM 41.7578 -73.8817 11° North 431 496 29,000  Level Boston Center
Tue 10:00:24 PM 41.8789 -73.8567 North 431 496 29,000  Level Boston Center
Tue 10:01:22 PM 42.0064 -73.8231 11° North 431 496 29,000  Level Boston Center
Tue 10:02:22 PM 42.1256 -73.7922 11° North 431 496 29,000  Level Boston Center
Tue 10:03:22 PM 42.2447 -73.7611 11° North 431 496 29,000  Level Boston Center
Tue 10:04:23 PM 42.3639 -73.7269 12° North 431 496 29,000  Level Boston Center
Tue 10:05:24 PM 42.4831 -73.6986 10° North 431 496 29,000  Level Boston Center
Tue 10:06:22 PM 42.6064 -73.6672 11° North 431 496 29,000  Level Boston Center
Tue 10:07:22 PM 42.7275 -73.6356 11° North 431 496 29,000  Level Boston Center
Tue 10:08:22 PM 42.8467 -73.6011 12° North 431 496 29,000 -45 Level Boston Center
Tue 10:09:36 PM 42.9639 -73.5692 11° North 425 489 28,900 -448 Descending Boston Center
Tue 10:10:36 PM 43.0997 -73.5319 11° North 425 489 28,000 -915 Descending Boston Center
Tue 10:11:34 PM 43.2083 -73.5056 10° North 430 495 27,100 -750 Descending Boston Center
Tue 10:12:36 PM 43.3253 -73.4703 12° North 430 495 26,500 -541 Descending Boston Center
Tue 10:13:36 PM 43.4422 -73.4408 10° North 430 495 26,000 -496 Descending Boston Center
Tue 10:14:37 PM 43.5572 -73.4083 12° North 430 495 25,500 -1,160 Descending Boston Center
Tue 10:15:35 PM 43.6719 -73.3786 11° North 430 495 23,700 -2,269 Descending Boston Center
Tue 10:16:36 PM 43.7847 -73.3458 12° North 419 482 21,000 -2,975 Descending Boston Center
Tue 10:17:34 PM 43.8892 -73.3186 11° North 393 452 17,800 -3,203 Descending Boston Center
Tue 10:18:34 PM 43.9978 -73.2886 11° North 393 452 14,700 -2,975 Descending Boston Center
Tue 10:19:35 PM 44.1000 -73.2583 12° North 381 438 11,800 -2,331 Descending Boston Center
Tue 10:20:35 PM 44.1897 -73.2333 11° North 350 403 10,000 -2,000 Descending Boston Center
Tue 10:21:35 PM 44.2508 -73.1561 42° Northeast 277 319 7,800 -2,250 Descending Boston Center
Tue 10:22:35 PM 44.2950 -73.0897 47° Northeast 246 283 5,500 -1,983 Descending Boston Center
Tue 10:23:36 PM 44.3347 -73.0381 43° Northeast 206 237 3,800 -1,488 Descending Boston Center
Tue 10:24:36 PM 44.3786 -73.0383 360° North 163 188 2,500 -915 Descending Boston Center
Tue 10:25:34 PM 44.4139 -73.0619 334° Northwest 142 163 2,000 -555 Descending Boston Center
Tue 10:26:35 PM 44.4386 -73.1031 310° West 137 158 1,400 -689 Descending Boston Center
Tue 10:27:36 PM 44.4633 -73.1381 315° West 137 158 600 -496 Descending Boston Center
Tue 10:28:36 PM 44.4758 -73.1586 310° West 116 133 400 -100 Descending Boston Center
Tue 10:29:36 PM 44.4717 -73.1586 180° South 64 74 400  Level Boston Center
Tue 10:30:47 PM 44.4717 -73.1558 90° East 24 28 400  Level Boston Center
Tue 10:32:00 PM 44.4667 -73.1500 10° North  Level FlightAware Approximate

Login

Don't have an account? Register now (free) for customized features, flight alerts, and more!